Time;durP1;ratioP1;P1;durP2;ratioP2;P2;SDS_P1;SDS_P2;PMS_P1;PMS_P2;Temp;Humidity;BMP_temperature;BMP_pressure;BME280_temperature;BME280_humidity;BME280_pressure;Samples;Min_cycle;Max_cycle;Signal;HPM_P1;HPM_P2
2022/10/04 00:00:41;;;;;;;17.23;6.47;;;9.00;99.90;;;;;;6230715;28;20141;-80
2022/10/04 00:03:46;;;;;;;10.95;4.57;;;9.00;99.90;;;;;;6237287;28;20048;-82
2022/10/04 00:06:53;;;;;;;14.60;5.22;;;9.00;99.90;;;;;;6239542;28;20045;-82
2022/10/04 00:09:57;;;;;;;10.85;4.35;;;8.90;99.90;;;;;;6237506;28;20060;-82
2022/10/04 00:13:02;;;;;;;13.65;5.78;;;8.90;99.90;;;;;;6252919;28;20045;-82
2022/10/04 00:16:04;;;;;;;19.45;6.15;;;8.90;99.90;;;;;;6260384;28;20148;-82
2022/10/04 00:19:25;;;;;;;12.50;5.95;;;8.80;99.90;;;;;;6259335;28;20049;-83
2022/10/04 00:22:29;;;;;;;14.45;5.47;;;8.80;99.90;;;;;;6261574;28;20430;-80
2022/10/04 00:25:35;;;;;;;9.10;4.82;;;8.90;99.90;;;;;;6261291;28;20053;-83
2022/10/04 00:28:45;;;;;;;16.70;6.18;;;8.80;99.90;;;;;;6261024;28;20522;-80
2022/10/04 00:32:25;;;;;;;10.98;4.95;;;8.80;99.90;;;;;;6261716;28;20041;-82
2022/10/04 00:35:47;;;;;;;11.25;5.50;;;8.70;99.90;;;;;;6236249;28;20045;-81
2022/10/04 00:39:26;;;;;;;16.42;5.30;;;8.70;99.90;;;;;;6238876;28;20053;-83
2022/10/04 00:42:48;;;;;;;10.68;5.40;;;8.60;99.90;;;;;;6236643;28;20050;-82
2022/10/04 00:45:54;;;;;;;10.50;5.03;;;8.60;99.90;;;;;;6236796;28;20136;-83
2022/10/04 00:48:59;;;;;;;17.77;5.45;;;8.60;99.90;;;;;;6235427;28;20049;-83
2022/10/04 00:52:06;;;;;;;9.55;5.10;;;8.60;99.90;;;;;;6238587;28;20042;-82
2022/10/04 00:55:17;;;;;;;11.50;5.60;;;8.50;99.90;;;;;;6238614;28;20058;-82
2022/10/04 00:58:23;;;;;;;17.55;5.50;;;8.50;99.90;;;;;;6236811;28;20069;-81
2022/10/04 01:01:28;;;;;;;11.63;5.65;;;8.50;99.90;;;;;;6237147;28;20055;-81
2022/10/04 01:04:38;;;;;;;12.10;5.15;;;8.50;99.90;;;;;;6244048;28;20053;-81
2022/10/04 01:07:44;;;;;;;10.40;5.30;;;8.50;99.90;;;;;;6257956;28;20042;-83
2022/10/04 01:10:52;;;;;;;16.80;5.53;;;8.40;99.90;;;;;;6260346;28;20053;-81
2022/10/04 01:13:58;;;;;;;10.43;5.60;;;8.40;99.90;;;;;;6258311;28;20049;-81
2022/10/04 01:17:00;;;;;;;10.35;5.82;;;8.40;99.90;;;;;;6257185;28;20056;-82
2022/10/04 01:20:02;;;;;;;7.03;4.93;;;8.40;99.90;;;;;;6256534;28;20052;-83
2022/10/04 01:23:05;;;;;;;11.02;5.03;;;8.40;99.90;;;;;;6256245;28;20515;-81
2022/10/04 01:26:38;;;;;;;14.23;5.30;;;8.40;99.90;;;;;;6257613;28;20579;-81
2022/10/04 01:29:40;;;;;;;11.52;5.07;;;8.30;99.90;;;;;;6256772;28;20052;-81
2022/10/04 01:32:42;;;;;;;10.27;5.25;;;8.20;99.90;;;;;;6257285;28;20454;-81
2022/10/04 01:35:44;;;;;;;11.25;5.07;;;8.20;99.90;;;;;;6255764;28;20049;-80
2022/10/04 01:38:47;;;;;;;13.02;5.80;;;8.20;99.90;;;;;;6255937;28;20049;-83
2022/10/04 01:41:57;;;;;;;16.55;6.22;;;8.10;99.90;;;;;;6256769;28;20049;-82
2022/10/04 01:45:03;;;;;;;15.07;5.88;;;8.20;99.90;;;;;;6256834;28;20160;-82
2022/10/04 01:48:09;;;;;;;11.23;6.95;;;8.10;99.90;;;;;;6256259;28;20057;-81
2022/10/04 01:51:16;;;;;;;11.65;5.00;;;8.20;99.90;;;;;;6254769;28;20099;-80
2022/10/04 01:54:24;;;;;;;13.07;5.93;;;8.10;99.90;;;;;;6254797;28;20159;-82
2022/10/04 01:57:34;;;;;;;10.80;5.70;;;8.10;99.90;;;;;;6253239;28;20049;-81
2022/10/04 02:00:40;;;;;;;8.88;5.60;;;8.00;99.90;;;;;;6253877;28;20048;-80
2022/10/04 02:03:45;;;;;;;12.32;6.03;;;8.00;99.90;;;;;;6254120;28;20120;-80
2022/10/04 02:06:53;;;;;;;20.80;6.68;;;8.00;99.90;;;;;;6252326;28;20049;-80
2022/10/04 02:09:59;;;;;;;11.35;6.10;;;8.00;99.90;;;;;;6253308;28;20072;-81
2022/10/04 02:13:01;;;;;;;12.85;6.30;;;8.00;99.90;;;;;;6253324;28;20053;-81
2022/10/04 02:16:04;;;;;;;14.20;6.10;;;8.10;99.90;;;;;;6259100;28;20099;-79
2022/10/04 02:19:10;;;;;;;24.83;6.05;;;8.00;99.90;;;;;;6258736;28;20049;-81
2022/10/04 02:22:12;;;;;;;15.23;6.78;;;8.00;99.90;;;;;;6256326;28;20432;-81
2022/10/04 02:25:16;;;;;;;12.10;5.82;;;7.90;99.90;;;;;;6254703;28;20056;-82
2022/10/04 02:28:18;;;;;;;10.80;5.00;;;7.90;99.90;;;;;;6254143;28;20096;-82
2022/10/04 02:34:42;;;;;;;11.65;5.70;;;7.90;99.90;;;;;;6255198;28;20054;-82
2022/10/04 02:37:43;;;;;;;13.95;5.97;;;7.90;99.90;;;;;;6254350;28;20045;-82
2022/10/04 02:40:56;;;;;;;10.70;4.80;;;7.90;99.90;;;;;;6254216;28;20144;-82
2022/10/04 02:44:01;;;;;;;10.70;5.13;;;7.90;99.90;;;;;;6253701;28;20049;-82
2022/10/04 02:47:10;;;;;;;12.90;5.18;;;7.80;99.90;;;;;;6253381;28;20049;-81
2022/10/04 02:50:21;;;;;;;10.95;5.13;;;7.80;99.90;;;;;;6254268;28;20049;-82
2022/10/04 02:53:31;;;;;;;10.18;5.22;;;7.80;99.90;;;;;;6253464;28;20431;-81
2022/10/04 02:56:36;;;;;;;8.27;4.50;;;7.80;99.90;;;;;;6254843;28;20063;-80
2022/10/04 02:59:39;;;;;;;9.35;4.68;;;7.70;99.90;;;;;;6254833;28;20064;-82
2022/10/04 03:02:42;;;;;;;10.57;4.47;;;7.70;99.90;;;;;;6257468;28;20053;-82
2022/10/04 03:05:47;;;;;;;12.38;4.50;;;7.70;99.90;;;;;;6255551;28;20078;-82
2022/10/04 03:08:52;;;;;;;10.98;3.92;;;7.70;99.90;;;;;;6253252;28;20518;-80
2022/10/04 03:11:55;;;;;;;14.15;4.35;;;7.60;99.90;;;;;;6254535;28;20060;-83
2022/10/04 03:14:57;;;;;;;11.68;5.68;;;7.60;99.90;;;;;;6255266;28;20068;-82
2022/10/04 03:18:00;;;;;;;10.73;5.38;;;7.60;99.90;;;;;;6254930;28;20435;-80
2022/10/04 03:21:03;;;;;;;18.20;6.50;;;7.50;99.90;;;;;;6255301;28;20472;-80
2022/10/04 03:24:06;;;;;;;15.43;5.78;;;7.50;99.90;;;;;;6254300;28;20041;-81
2022/10/04 03:27:14;;;;;;;16.15;5.93;;;7.50;99.90;;;;;;6252953;28;20053;-81
2022/10/04 03:30:18;;;;;;;15.88;5.82;;;7.50;99.90;;;;;;6254251;28;20045;-81
2022/10/04 03:33:22;;;;;;;15.27;5.30;;;7.50;99.90;;;;;;6253559;28;20046;-81
2022/10/04 03:36:26;;;;;;;9.10;5.25;;;7.40;99.90;;;;;;6253168;28;20510;-81
2022/10/04 03:39:32;;;;;;;13.73;5.65;;;7.40;99.90;;;;;;6252174;28;20057;-80
2022/10/04 03:42:37;;;;;;;10.43;4.95;;;7.40;99.90;;;;;;6254069;28;20057;-81
2022/10/04 03:45:41;;;;;;;15.40;5.57;;;7.40;99.90;;;;;;6253191;28;20060;-82
2022/10/04 03:48:46;;;;;;;7.20;4.50;;;7.40;99.90;;;;;;6252627;28;20499;-80
2022/10/04 03:51:51;;;;;;;16.55;6.10;;;7.40;99.90;;;;;;6253649;28;20056;-80
2022/10/04 03:54:55;;;;;;;16.45;5.97;;;7.40;99.90;;;;;;6252677;28;20049;-82
2022/10/04 03:57:59;;;;;;;20.98;5.72;;;7.30;99.90;;;;;;6250881;28;20057;-80
2022/10/04 04:01:36;;;;;;;16.58;5.35;;;7.30;99.90;;;;;;6251143;28;20049;-80
2022/10/04 04:04:49;;;;;;;11.48;5.00;;;7.30;99.90;;;;;;6248002;28;20049;-81
2022/10/04 04:07:59;;;;;;;9.88;5.28;;;7.30;99.90;;;;;;6250490;28;20041;-83
2022/10/04 04:11:04;;;;;;;12.55;5.55;;;7.30;99.90;;;;;;6251214;28;20095;-81
2022/10/04 04:14:11;;;;;;;19.38;5.60;;;7.20;99.90;;;;;;6250934;28;20050;-81
2022/10/04 04:17:32;;;;;;;12.75;5.38;;;7.20;99.90;;;;;;6249498;28;20046;-82
2022/10/04 04:20:37;;;;;;;12.57;6.35;;;7.20;99.90;;;;;;6249515;28;20045;-80
2022/10/04 04:23:43;;;;;;;17.65;4.88;;;7.20;99.90;;;;;;6250061;28;20049;-81
2022/10/04 04:26:49;;;;;;;21.85;6.75;;;7.20;99.90;;;;;;6250206;28;20053;-81
2022/10/04 04:29:53;;;;;;;13.52;5.68;;;7.10;99.90;;;;;;6250450;28;20048;-80
2022/10/04 04:32:57;;;;;;;12.73;6.70;;;7.10;99.90;;;;;;6249872;28;20451;-81
2022/10/04 04:36:05;;;;;;;12.63;5.63;;;7.20;99.90;;;;;;6249395;28;20504;-81
2022/10/04 04:42:31;;;;;;;13.65;5.00;;;7.20;99.90;;;;;;6250139;28;20045;-80
2022/10/04 04:45:37;;;;;;;21.95;5.78;;;7.10;99.90;;;;;;6250873;28;20542;-80
2022/10/04 04:48:39;;;;;;;14.82;5.10;;;7.20;99.90;;;;;;6250688;28;20057;-82
2022/10/04 04:51:46;;;;;;;13.32;4.95;;;7.20;99.90;;;;;;6254889;28;20048;-81
2022/10/04 04:54:48;;;;;;;11.77;4.70;;;7.10;99.90;;;;;;6254844;28;20073;-82
2022/10/04 04:57:54;;;;;;;13.52;6.80;;;7.10;99.90;;;;;;6252977;28;20051;-81
2022/10/04 05:01:00;;;;;;;15.73;5.80;;;7.10;99.90;;;;;;6253899;28;20131;-81
2022/10/04 05:04:04;;;;;;;19.13;5.28;;;7.00;99.90;;;;;;6248243;28;20038;-82
2022/10/04 05:07:18;;;;;;;10.18;6.05;;;7.00;99.90;;;;;;6232966;28;20101;-81
2022/10/04 05:10:31;;;;;;;13.57;5.35;;;7.00;99.90;;;;;;6253630;28;20054;-81
2022/10/04 05:13:38;;;;;;;8.55;4.60;;;7.00;99.90;;;;;;6254824;28;20041;-81
2022/10/04 05:16:44;;;;;;;17.98;6.38;;;7.00;99.90;;;;;;6254302;28;20132;-82
2022/10/04 05:19:46;;;;;;;16.30;6.18;;;7.10;99.90;;;;;;6253070;28;20415;-83
2022/10/04 05:22:50;;;;;;;10.18;4.75;;;7.10;99.90;;;;;;6257232;28;20518;-81
2022/10/04 05:25:52;;;;;;;16.50;4.75;;;7.10;99.90;;;;;;6254463;28;20041;-81
2022/10/04 05:28:54;;;;;;;11.60;5.18;;;7.00;99.90;;;;;;6254658;28;20052;-81
2022/10/04 05:32:07;;;;;;;16.25;4.85;;;7.00;99.90;;;;;;6254923;28;20045;-82
2022/10/04 05:35:15;;;;;;;8.35;4.60;;;7.00;99.90;;;;;;6253525;28;20479;-81
2022/10/04 05:38:27;;;;;;;7.88;4.40;;;7.00;99.90;;;;;;6254876;28;20045;-82
2022/10/04 05:41:39;;;;;;;14.10;5.97;;;7.00;99.90;;;;;;6253353;28;20057;-81
2022/10/04 05:44:49;;;;;;;16.23;4.55;;;7.00;99.90;;;;;;6253228;28;20045;-81
2022/10/04 05:47:53;;;;;;;12.93;4.57;;;7.00;99.90;;;;;;6252204;28;20383;-81
2022/10/04 05:50:56;;;;;;;21.77;5.70;;;7.00;99.90;;;;;;6254963;28;20050;-80
2022/10/04 05:54:00;;;;;;;18.23;4.95;;;7.00;99.90;;;;;;6254378;28;20046;-82
2022/10/04 05:57:27;;;;;;;9.07;4.82;;;7.10;99.90;;;;;;6278777;22;20045;-84
2022/10/04 06:00:39;;;;;;;10.43;5.72;;;7.30;99.90;;;;;;6228332;28;20123;-84
2022/10/04 06:04:04;;;;;;;15.73;3.95;;;7.40;99.90;;;;;;6228623;28;20053;-84
2022/10/04 06:07:16;;;;;;;12.05;4.32;;;7.50;99.90;;;;;;6228104;28;20046;-84
2022/10/04 06:10:51;;;;;;;13.20;4.88;;;7.60;99.90;;;;;;6234791;28;20052;-84
2022/10/04 06:14:30;;;;;;;11.38;5.88;;;7.80;99.90;;;;;;6204157;28;20042;-84
2022/10/04 06:17:51;;;;;;;10.13;5.27;;;8.00;99.90;;;;;;6205826;28;20134;-84
2022/10/04 06:21:18;;;;;;;14.02;4.88;;;8.20;99.90;;;;;;6204418;28;20302;-84
2022/10/04 06:24:25;;;;;;;9.57;4.78;;;8.30;99.90;;;;;;6206134;28;20047;-84
2022/10/04 06:27:34;;;;;;;8.55;4.03;;;8.30;99.90;;;;;;6205951;28;20526;-84
2022/10/04 06:30:52;;;;;;;9.82;4.25;;;8.40;99.90;;;;;;6204672;28;20061;-84
2022/10/04 06:34:16;;;;;;;9.73;4.97;;;8.50;99.90;;;;;;6204617;28;20046;-84
2022/10/04 06:37:41;;;;;;;8.70;4.20;;;8.70;99.90;;;;;;6203917;28;20062;-84
2022/10/04 06:41:11;;;;;;;8.60;4.63;;;8.90;99.90;;;;;;6178087;28;20666;-84
2022/10/04 06:44:31;;;;;;;11.52;4.25;;;9.10;99.90;;;;;;6191680;28;20045;-84
2022/10/04 06:47:49;;;;;;;7.45;4.30;;;9.20;99.90;;;;;;6225598;28;20232;-84
2022/10/04 06:50:59;;;;;;;8.13;4.00;;;9.30;99.90;;;;;;6228519;28;20045;-84
2022/10/04 06:54:19;;;;;;;10.52;3.97;;;9.50;99.90;;;;;;6229057;28;20050;-81
2022/10/04 06:57:40;;;;;;;8.85;4.28;;;9.60;99.90;;;;;;6228958;28;20049;-81
2022/10/04 07:00:52;;;;;;;8.98;4.28;;;9.70;99.90;;;;;;6229089;28;20046;-82
2022/10/04 07:04:00;;;;;;;14.43;5.15;;;9.90;99.90;;;;;;6229506;28;20038;-82
2022/10/04 07:07:25;;;;;;;17.73;6.43;;;10.00;99.90;;;;;;6229263;28;20049;-81
2022/10/04 07:10:34;;;;;;;11.70;5.85;;;10.30;99.90;;;;;;6231531;28;20085;-82
2022/10/04 07:13:45;;;;;;;21.38;6.10;;;10.50;99.90;;;;;;6236440;28;20056;-81
2022/10/04 07:16:50;;;;;;;17.05;7.75;;;10.70;99.90;;;;;;6234478;28;20515;-82
2022/10/04 07:19:54;;;;;;;19.58;6.10;;;10.90;99.90;;;;;;6226647;28;20096;-81
2022/10/04 07:23:00;;;;;;;28.83;7.75;;;11.00;99.90;;;;;;6226978;28;20046;-81
2022/10/04 07:26:07;;;;;;;28.05;9.68;;;11.20;99.90;;;;;;6228330;28;20041;-80
2022/10/04 07:29:22;;;;;;;24.93;7.63;;;11.30;99.90;;;;;;6227583;28;20045;-81
2022/10/04 07:32:27;;;;;;;37.28;9.18;;;11.50;99.90;;;;;;6227657;28;20050;-81
2022/10/04 07:35:36;;;;;;;16.58;8.48;;;11.70;99.90;;;;;;6226614;28;20052;-81
2022/10/04 07:38:38;;;;;;;;;;;11.90;99.90;;;;;;6227772;28;20046;-81
2022/10/04 07:41:48;;;;;;;19.10;8.90;;;12.10;99.90;;;;;;6227673;28;19926;-81
2022/10/04 07:45:02;;;;;;;21.42;9.88;;;12.30;99.90;;;;;;6226417;28;20057;-81
2022/10/04 07:48:12;;;;;;;20.63;9.10;;;12.50;99.90;;;;;;6226777;28;20518;-82
2022/10/04 07:51:20;;;;;;;20.75;9.23;;;12.70;99.90;;;;;;6225879;28;20387;-81
2022/10/04 07:54:30;;;;;;;21.00;8.38;;;12.90;99.90;;;;;;6225608;28;20093;-80
2022/10/04 07:57:43;;;;;;;25.63;10.40;;;13.00;99.90;;;;;;6225755;28;20507;-81
2022/10/04 08:00:52;;;;;;;31.08;9.60;;;13.20;99.90;;;;;;6224663;28;20054;-80
2022/10/04 08:04:14;;;;;;;33.47;8.05;;;13.30;99.90;;;;;;6225532;28;20042;-81
2022/10/04 08:07:22;;;;;;;16.40;8.13;;;13.30;99.90;;;;;;6224746;28;20045;-80
2022/10/04 08:10:28;;;;;;;;;;;13.40;99.90;;;;;;6226605;28;20053;-80
2022/10/04 08:13:41;;;;;;;14.27;7.88;;;13.50;99.90;;;;;;6231810;28;19925;-81
2022/10/04 08:16:57;;;;;;;16.40;7.03;;;13.60;99.90;;;;;;6225669;28;20392;-81
2022/10/04 08:20:12;;;;;;;19.27;7.68;;;13.80;99.90;;;;;;6225995;28;20418;-81
2022/10/04 08:23:39;;;;;;;11.55;7.45;;;14.00;99.90;;;;;;6229157;28;20060;-80
2022/10/04 08:26:56;;;;;;;13.93;7.50;;;14.10;99.90;;;;;;6234005;28;20154;-81
2022/10/04 08:30:06;;;;;;;12.18;7.63;;;14.20;99.90;;;;;;6233479;28;20050;-80
2022/10/04 08:33:15;;;;;;;13.80;6.97;;;14.50;99.90;;;;;;6231752;28;20050;-83
2022/10/04 08:36:32;;;;;;;20.60;8.73;;;14.70;99.90;;;;;;6231890;28;20077;-80
2022/10/04 08:39:45;;;;;;;12.82;7.05;;;14.80;99.90;;;;;;6230931;28;20046;-81
2022/10/04 08:43:19;;;;;;;12.75;7.35;;;14.90;99.90;;;;;;6232118;28;20057;-81
2022/10/04 08:46:51;;;;;;;12.85;6.57;;;15.00;99.90;;;;;;6234349;28;20077;-81
2022/10/04 08:50:37;;;;;;;13.50;6.72;;;15.00;99.90;;;;;;6230478;28;20057;-81
2022/10/04 08:54:16;;;;;;;14.23;6.72;;;15.20;99.90;;;;;;6230311;28;20053;-81
2022/10/04 08:57:44;;;;;;;12.10;6.72;;;15.40;99.90;;;;;;6229755;28;20073;-81
2022/10/04 09:01:13;;;;;;;11.60;6.40;;;15.80;99.90;;;;;;6230231;28;20050;-82
2022/10/04 09:04:50;;;;;;;9.77;5.73;;;16.20;99.90;;;;;;6231145;28;20049;-82
2022/10/04 09:08:29;;;;;;;9.52;6.70;;;16.40;99.90;;;;;;6220488;28;20631;-82
2022/10/04 09:11:45;;;;;;;11.35;5.18;;;16.60;99.80;;;;;;6232956;28;20071;-82
2022/10/04 09:15:02;;;;;;;10.45;6.65;;;16.70;99.60;;;;;;6207064;28;20046;-83
2022/10/04 09:18:21;;;;;;;11.00;6.53;;;16.80;99.40;;;;;;6229487;28;20042;-80
2022/10/04 09:21:42;;;;;;;9.68;6.45;;;16.60;99.10;;;;;;6232106;28;20786;-83
2022/10/04 09:25:10;;;;;;;7.80;5.43;;;16.40;99.20;;;;;;6227237;28;20042;-85
2022/10/04 09:28:28;;;;;;;7.90;5.75;;;16.40;99.40;;;;;;6227229;28;20061;-82
2022/10/04 09:31:58;;;;;;;11.60;5.25;;;16.40;99.40;;;;;;6227671;28;20523;-83
2022/10/04 09:35:30;;;;;;;9.27;5.13;;;16.60;99.30;;;;;;6227191;28;20061;-81
2022/10/04 09:39:18;;;;;;;12.15;7.57;;;16.70;98.80;;;;;;6228101;28;20053;-81
2022/10/04 09:42:42;;;;;;;7.30;4.95;;;16.70;98.30;;;;;;6228943;28;20053;-81
2022/10/04 09:46:00;;;;;;;7.07;5.13;;;17.00;98.40;;;;;;6230022;28;20042;-81
2022/10/04 09:49:17;;;;;;;5.13;3.67;;;17.70;97.60;;;;;;6228549;28;20045;-82
2022/10/04 09:52:33;;;;;;;5.07;3.40;;;18.00;97.00;;;;;;6228374;28;20049;-82
2022/10/04 09:56:00;;;;;;;8.63;3.78;;;18.30;96.40;;;;;;6229976;28;20049;-82
2022/10/04 09:59:43;;;;;;;6.28;3.50;;;18.80;95.70;;;;;;6229665;28;20057;-81
2022/10/04 10:03:22;;;;;;;6.55;3.90;;;19.60;94.40;;;;;;6234223;28;20400;-81
2022/10/04 10:06:50;;;;;;;9.38;3.33;;;20.10;92.80;;;;;;6232650;28;20077;-81
2022/10/04 10:13:41;;;;;;;5.07;3.65;;;20.70;91.10;;;;;;6232308;28;20499;-82
2022/10/04 10:16:59;;;;;;;5.53;3.83;;;21.00;90.20;;;;;;6233013;28;20069;-82
2022/10/04 10:20:34;;;;;;;6.93;4.00;;;21.30;88.10;;;;;;6229543;28;20049;-82
2022/10/04 10:23:55;;;;;;;7.00;3.72;;;21.50;87.40;;;;;;6228699;28;20053;-80
2022/10/04 10:27:09;;;;;;;5.93;3.50;;;21.80;85.80;;;;;;6226462;28;20045;-83
2022/10/04 10:30:22;;;;;;;7.15;4.07;;;22.10;84.90;;;;;;6227205;28;20420;-82
2022/10/04 10:34:08;;;;;;;5.00;4.10;;;22.40;83.90;;;;;;6227818;28;20050;-81
2022/10/04 10:37:17;;;;;;;6.30;3.78;;;22.70;81.60;;;;;;6204281;28;20060;-81
2022/10/04 10:40:58;;;;;;;5.00;3.35;;;23.00;80.70;;;;;;6252455;28;20052;-82
2022/10/04 10:44:31;;;;;;;7.18;3.75;;;23.50;77.60;;;;;;6251032;28;20122;-81
2022/10/04 10:47:41;;;;;;;6.20;3.83;;;23.70;77.00;;;;;;6225612;28;20065;-82
2022/10/04 10:51:02;;;;;;;8.77;3.47;;;23.70;75.00;;;;;;6226776;28;20510;-82
2022/10/04 10:54:37;;;;;;;3.85;2.92;;;23.80;74.10;;;;;;6224923;28;20049;-82
2022/10/04 10:58:14;;;;;;;8.20;3.80;;;24.00;73.10;;;;;;6224559;28;20049;-80
2022/10/04 11:01:41;;;;;;;8.63;3.40;;;24.20;71.10;;;;;;6225882;28;20046;-80
2022/10/04 11:04:53;;;;;;;5.47;3.40;;;24.30;71.10;;;;;;6225446;28;20041;-81
2022/10/04 11:08:03;;;;;;;6.70;3.40;;;24.50;70.70;;;;;;6225872;28;20045;-81
2022/10/04 11:11:21;;;;;;;8.07;4.20;;;24.70;69.90;;;;;;6225467;28;20401;-81
2022/10/04 11:14:58;;;;;;;5.82;3.53;;;25.10;68.60;;;;;;6227395;28;20041;-82
2022/10/04 11:18:16;;;;;;;6.07;2.90;;;25.10;67.80;;;;;;6221985;28;20069;-82
2022/10/04 11:21:45;;;;;;;5.55;3.50;;;24.90;68.30;;;;;;6226068;28;20050;-82
2022/10/04 11:25:24;;;;;;;5.40;2.80;;;24.80;68.10;;;;;;6227216;28;20515;-82
2022/10/04 11:28:37;;;;;;;5.65;3.20;;;24.90;67.70;;;;;;6217652;28;20057;-82
2022/10/04 11:32:10;;;;;;;8.00;3.03;;;25.10;68.20;;;;;;6227637;28;20041;-82
2022/10/04 11:35:40;;;;;;;5.10;2.80;;;25.20;66.60;;;;;;6225623;28;20161;-82
2022/10/04 11:38:52;;;;;;;3.92;2.53;;;25.30;66.80;;;;;;6225479;28;20514;-82
2022/10/04 11:41:59;;;;;;;6.90;2.67;;;25.30;65.80;;;;;;6225431;28;20061;-81
2022/10/04 11:45:20;;;;;;;;;;;25.40;66.40;;;;;;6226404;28;20389;-83
2022/10/04 11:48:33;;;;;;;13.80;3.42;;;25.60;66.10;;;;;;6219019;28;19928;-81
2022/10/04 11:52:15;;;;;;;3.92;2.20;;;25.80;65.10;;;;;;6225221;28;20514;-82
2022/10/04 11:55:35;;;;;;;7.32;2.55;;;26.00;63.80;;;;;;6197723;28;20053;-82
2022/10/04 11:58:51;;;;;;;10.73;3.13;;;26.20;63.60;;;;;;6225968;28;20054;-81
2022/10/04 12:05:43;;;;;;;3.58;2.30;;;26.20;62.70;;;;;;6272940;28;20079;-81
2022/10/04 12:09:04;;;;;;;8.95;2.67;;;26.30;62.80;;;;;;6259847;28;20501;-81
2022/10/04 12:12:38;;;;;;;6.30;3.13;;;26.30;61.90;;;;;;6254898;28;20049;-81
2022/10/04 12:16:28;;;;;;;4.57;2.22;;;26.30;62.00;;;;;;6259705;28;20041;-81
2022/10/04 12:19:44;;;;;;;;;;;26.50;61.40;;;;;;6235720;28;20120;-82
2022/10/04 12:23:06;;;;;;;3.35;2.25;;;26.60;61.30;;;;;;6274998;28;20015;-82
2022/10/04 12:26:44;;;;;;;4.97;2.95;;;26.90;60.90;;;;;;6275726;28;20053;-81
2022/10/04 12:30:20;;;;;;;6.90;1.93;;;27.20;59.50;;;;;;6275395;28;20147;-83
2022/10/04 12:33:29;;;;;;;3.25;2.15;;;27.20;58.90;;;;;;6274313;28;20126;-81
2022/10/04 12:36:52;;;;;;;4.43;2.47;;;27.30;59.20;;;;;;6275166;28;20063;-82
2022/10/04 12:40:13;;;;;;;3.65;2.20;;;27.40;59.20;;;;;;6273706;28;20055;-81
2022/10/04 12:43:22;;;;;;;12.32;2.90;;;27.60;58.70;;;;;;6258260;28;20136;-82
2022/10/04 12:46:35;;;;;;;5.30;1.95;;;27.70;58.20;;;;;;6252848;28;20045;-82
2022/10/04 12:49:43;;;;;;;7.13;2.05;;;27.80;58.10;;;;;;6270325;28;20041;-82
2022/10/04 12:52:53;;;;;;;5.82;1.95;;;28.00;57.90;;;;;;6274205;28;20525;-82
2022/10/04 12:56:07;;;;;;;3.50;1.83;;;28.10;57.20;;;;;;6274161;28;20525;-82
2022/10/04 12:59:35;;;;;;;8.13;2.05;;;28.20;56.20;;;;;;6274027;28;20075;-82
2022/10/04 13:03:07;;;;;;;7.40;2.25;;;28.30;55.80;;;;;;6264101;28;20517;-81
2022/10/04 13:06:18;;;;;;;7.00;2.35;;;28.00;55.40;;;;;;6271307;28;20521;-81
2022/10/04 13:09:31;;;;;;;6.57;2.55;;;27.60;55.60;;;;;;6273475;28;20052;-81
2022/10/04 13:12:45;;;;;;;5.07;1.85;;;27.40;56.50;;;;;;6278354;28;20052;-80
2022/10/04 13:15:57;;;;;;;3.83;1.35;;;27.40;57.00;;;;;;6272667;28;20045;-81
2022/10/04 13:19:07;;;;;;;6.20;1.90;;;27.50;55.90;;;;;;6265312;28;20060;-83
2022/10/04 13:22:32;;;;;;;4.78;1.73;;;27.70;56.10;;;;;;6253435;28;20046;-85
2022/10/04 13:26:08;;;;;;;4.45;1.60;;;27.70;55.80;;;;;;6253477;28;20045;-81
2022/10/04 13:29:21;;;;;;;6.97;1.90;;;28.00;55.50;;;;;;6249624;28;20064;-83
2022/10/04 13:32:26;;;;;;;11.43;2.40;;;28.10;55.00;;;;;;6253406;28;20041;-82
2022/10/04 13:35:35;;;;;;;9.18;1.92;;;28.20;54.00;;;;;;6253070;28;20045;-84
2022/10/04 13:38:53;;;;;;;10.27;2.03;;;28.40;54.10;;;;;;6254084;28;20057;-84
2022/10/04 13:42:07;;;;;;;4.40;1.92;;;28.40;53.30;;;;;;6254238;28;20052;-83
2022/10/04 13:45:30;;;;;;;6.07;2.58;;;28.40;53.30;;;;;;6255072;28;20049;-84
2022/10/04 13:48:53;;;;;;;8.57;4.63;;;28.40;53.60;;;;;;6271218;28;20045;-83
2022/10/04 13:59:07;;;;;;;14.52;9.35;;;28.50;52.80;;;;;;6278558;28;20045;-83
2022/10/04 14:02:57;;;;;;;3.17;2.00;;;28.50;52.90;;;;;;6278776;28;20060;-84
2022/10/04 14:06:28;;;;;;;4.10;2.50;;;28.40;52.70;;;;;;6202581;28;20137;-83
2022/10/04 14:10:05;;;;;;;5.30;1.92;;;28.20;53.30;;;;;;6187848;28;20107;-84
2022/10/04 14:13:37;;;;;;;5.55;2.67;;;28.10;53.40;;;;;;6216401;28;20069;-83
2022/10/04 14:17:05;;;;;;;7.57;4.30;;;28.00;53.70;;;;;;6235276;28;20049;-83
2022/10/04 14:20:37;;;;;;;7.70;2.20;;;28.00;53.80;;;;;;6204604;28;20042;-83
2022/10/04 14:28:24;;;;;;;5.18;1.50;;;28.00;53.90;;;;;;6216927;28;20062;-83
2022/10/04 14:32:37;;;;;;;7.28;1.58;;;27.80;54.10;;;;;;6219242;28;20097;-83
2022/10/04 14:36:17;;;;;;;7.57;1.80;;;27.70;54.50;;;;;;6087122;29;20141;-82
2022/10/04 14:39:41;;;;;;;20.05;9.05;;;27.50;54.70;;;;;;6172399;28;20057;-82
2022/10/04 15:11:20;;;;;;;7.05;1.83;;;27.10;55.50;;;;;;6030606;29;20053;-83
2022/10/04 15:14:58;;;;;;;5.38;1.92;;;26.70;55.90;;;;;;6082578;29;20495;-82
2022/10/04 15:22:26;;;;;;;4.00;1.60;;;25.70;57.60;;;;;;6108484;28;20047;-83
2022/10/04 15:25:47;;;;;;;4.57;2.47;;;25.10;59.20;;;;;;6181551;28;20154;-83
2022/10/04 15:54:04;;;;;;;5.15;2.45;;;21.50;72.10;;;;;;6214095;28;20133;-83
2022/10/04 15:57:26;;;;;;;3.90;2.45;;;21.20;74.00;;;;;;6189212;28;20046;-82
2022/10/04 16:00:39;;;;;;;8.10;2.83;;;20.90;75.10;;;;;;6205645;28;20062;-83
2022/10/04 16:03:53;;;;;;;3.63;2.33;;;20.70;76.60;;;;;;6228109;28;20100;-85
2022/10/04 16:07:01;;;;;;;8.13;2.60;;;20.40;78.00;;;;;;6226554;28;20050;-82
2022/10/04 16:10:18;;;;;;;2.85;2.35;;;20.30;79.70;;;;;;6225565;28;20056;-83
2022/10/04 16:13:35;;;;;;;7.93;2.90;;;20.10;81.60;;;;;;6228355;28;20515;-83
2022/10/04 16:17:00;;;;;;;4.80;2.53;;;19.80;83.20;;;;;;6227719;28;20062;-82
2022/10/04 16:20:27;;;;;;;4.82;2.60;;;19.70;84.80;;;;;;6227030;28;20129;-82
2022/10/04 16:23:32;;;;;;;8.10;2.38;;;19.40;86.20;;;;;;6174472;28;20418;-82
2022/10/04 16:27:12;;;;;;;4.53;2.80;;;19.20;87.90;;;;;;6202180;28;20445;-83
2022/10/04 16:30:23;;;;;;;7.97;3.10;;;19.00;89.50;;;;;;6192845;28;20416;-83
2022/10/04 16:33:31;;;;;;;5.70;2.85;;;18.80;90.50;;;;;;6202742;28;20046;-83
2022/10/04 16:36:47;;;;;;;9.57;3.42;;;18.70;91.30;;;;;;6201635;28;20097;-83
2022/10/04 16:39:58;;;;;;;10.13;2.45;;;18.50;92.00;;;;;;6218131;28;20416;-82
2022/10/04 16:43:05;;;;;;;7.68;3.35;;;18.40;92.60;;;;;;6225627;28;20197;-81
2022/10/04 16:46:17;;;;;;;7.15;3.50;;;18.10;93.30;;;;;;6229399;28;20053;-82
2022/10/04 16:49:24;;;;;;;5.85;3.03;;;18.00;94.00;;;;;;6230214;28;20508;-81
2022/10/04 16:52:53;;;;;;;14.77;3.30;;;17.80;94.90;;;;;;6231104;28;20115;-81
2022/10/04 16:55:59;;;;;;;11.07;3.38;;;17.60;95.70;;;;;;6220706;28;20050;-82
2022/10/04 16:59:03;;;;;;;10.07;3.50;;;17.50;96.40;;;;;;6214539;28;20136;-82
2022/10/04 17:15:26;;;;;;;6.82;3.95;;;16.40;99.90;;;;;;6252934;28;20058;-82
2022/10/04 17:30:53;;;;;;;8.07;4.45;;;15.80;99.90;;;;;;6220801;28;20057;-81
2022/10/04 17:38:13;;;;;;;7.90;4.78;;;15.50;99.90;;;;;;6222947;28;20479;-83
2022/10/04 17:46:11;;;;;;;10.27;5.88;;;15.30;99.90;;;;;;6177672;28;20480;-83
2022/10/04 17:56:33;;;;;;;8.80;5.88;;;15.00;99.90;;;;;;6202209;28;20048;-82
2022/10/04 17:59:41;;;;;;;11.88;5.25;;;14.80;99.90;;;;;;6277455;28;20052;-83
2022/10/04 18:02:58;;;;;;;10.35;4.85;;;14.70;99.90;;;;;;6240464;22;20105;-79
2022/10/04 18:06:11;;;;;;;10.52;5.15;;;14.70;99.90;;;;;;6201644;28;20129;-79
2022/10/04 18:09:21;;;;;;;12.48;4.15;;;14.50;99.90;;;;;;6203956;28;20526;-80
2022/10/04 18:12:30;;;;;;;7.10;4.68;;;14.40;99.90;;;;;;6202709;28;20054;-79
2022/10/04 18:15:37;;;;;;;8.45;4.57;;;14.30;99.90;;;;;;6211412;28;20112;-78
2022/10/04 18:18:41;;;;;;;8.20;5.33;;;14.30;99.90;;;;;;6227683;28;20056;-80
2022/10/04 18:21:53;;;;;;;5.72;4.03;;;14.10;99.90;;;;;;6223664;28;20045;-79
2022/10/04 18:25:11;;;;;;;14.57;4.82;;;14.10;99.90;;;;;;6249239;28;20053;-79
2022/10/04 18:28:19;;;;;;;9.05;4.60;;;14.00;99.90;;;;;;6250885;28;20045;-80
2022/10/04 18:31:30;;;;;;;8.95;3.78;;;13.90;99.90;;;;;;6254632;28;20163;-80
2022/10/04 18:34:32;;;;;;;7.85;3.90;;;13.70;99.90;;;;;;6252229;28;20057;-79
2022/10/04 18:37:37;;;;;;;9.98;4.90;;;13.70;99.90;;;;;;6251583;28;20526;-80
2022/10/04 18:40:42;;;;;;;8.48;4.28;;;13.60;99.90;;;;;;6250413;28;20521;-78
2022/10/04 18:43:51;;;;;;;9.20;3.60;;;13.60;99.90;;;;;;6252485;28;20060;-79
2022/10/04 18:46:56;;;;;;;21.23;5.93;;;13.50;99.90;;;;;;6253997;28;20431;-79
2022/10/04 18:50:02;;;;;;;7.72;3.88;;;13.40;99.90;;;;;;6252601;28;20048;-79
2022/10/04 18:53:33;;;;;;;10.95;3.90;;;13.30;99.90;;;;;;6252948;28;20053;-79
2022/10/04 18:56:44;;;;;;;16.17;5.20;;;13.20;99.90;;;;;;6252261;28;20499;-78